createdAt,value
2022-12-31T00:01:58.909Z,94.71
2022-12-31T00:07:10.055Z,94.61
2022-12-31T00:12:20.517Z,94.36
2022-12-31T00:14:49.700Z,94.15
2022-12-31T00:17:21.260Z,94.18
2022-12-31T00:25:13.630Z,94.13
2022-12-31T00:27:44.919Z,93.93
2022-12-31T00:30:21.627Z,93.78
2022-12-31T00:35:31.960Z,93.49
2022-12-31T00:38:05.067Z,93.38
2022-12-31T00:40:51.884Z,93.28
2022-12-31T00:43:19.199Z,92.96
2022-12-31T00:45:48.366Z,92.81
2022-12-31T00:48:22.670Z,92.89
2022-12-31T01:02:02.927Z,94.04
2022-12-31T01:05:01.195Z,94.05
2022-12-31T01:07:48.336Z,94.08
2022-12-31T01:13:35.888Z,93.48
2022-12-31T01:16:19.570Z,93.30
2022-12-31T01:19:01.984Z,92.99
2022-12-31T01:21:43.276Z,92.72
2022-12-31T01:27:09.628Z,92.18
2022-12-31T01:29:52.852Z,92.14
2022-12-31T01:32:33.016Z,91.95
2022-12-31T01:35:35.011Z,92.05
2022-12-31T01:38:02.033Z,91.62
2022-12-31T01:40:39.018Z,91.78
2022-12-31T01:43:22.450Z,91.55
2022-12-31T01:45:54.399Z,91.55
2022-12-31T01:48:31.975Z,91.38
2022-12-31T01:50:59.043Z,91.29
2022-12-31T01:53:50.030Z,91.07
2022-12-31T01:56:24.316Z,90.86
2022-12-31T01:58:59.761Z,90.93
2022-12-31T02:07:47.807Z,90.07
2022-12-31T02:10:30.759Z,90.09
2022-12-31T02:13:00.574Z,89.82
2022-12-31T02:19:30.757Z,89.86
2022-12-31T02:22:24.294Z,90.11
2022-12-31T02:25:44.732Z,89.89
2022-12-31T02:28:42.816Z,89.55
2022-12-31T02:31:24.735Z,89.31
2022-12-31T02:34:12.592Z,89.04
2022-12-31T02:36:51.315Z,89.25
2022-12-31T02:39:22.186Z,88.73
2022-12-31T02:42:00.127Z,88.37
2022-12-31T02:44:40.308Z,88.04
2022-12-31T02:47:16.859Z,87.83
2022-12-31T02:50:43.916Z,86.90
2022-12-31T02:54:04.451Z,86.69
2022-12-31T02:56:43.418Z,86.24
2022-12-31T03:00:05.670Z,84.91
2022-12-31T03:02:45.166Z,84.27
2022-12-31T03:05:24.917Z,83.95
2022-12-31T03:11:32.779Z,82.92
2022-12-31T03:14:04.981Z,83.05
2022-12-31T03:16:32.279Z,82.40
2022-12-31T03:19:26.832Z,82.55
2022-12-31T03:22:16.730Z,82.61
2022-12-31T03:27:50.319Z,82.75
2022-12-31T03:30:38.155Z,82.41
2022-12-31T03:33:08.930Z,82.36
2022-12-31T03:35:37.503Z,82.72
2022-12-31T03:38:27.681Z,82.39
2022-12-31T03:40:58.025Z,82.64
2022-12-31T03:49:33.501Z,82.77
2022-12-31T03:54:56.776Z,83.27
2022-12-31T03:57:45.336Z,83.84
2022-12-31T04:07:01.998Z,84.24
2022-12-31T04:22:15.644Z,83.46
2022-12-31T04:27:35.008Z,83.13
2022-12-31T04:32:46.395Z,82.91
2022-12-31T04:35:23.608Z,82.96
2022-12-31T04:38:04.371Z,82.54
2022-12-31T04:44:02.648Z,82.94
2022-12-31T04:53:37.989Z,81.68
2022-12-31T04:56:08.803Z,81.53
2022-12-31T04:58:48.958Z,81.52
2022-12-31T05:01:59.942Z,81.71
2022-12-31T05:04:58.851Z,81.88
2022-12-31T05:07:51.821Z,81.23
2022-12-31T05:10:34.106Z,81.18
2022-12-31T05:16:29.628Z,80.15
2022-12-31T05:19:38.467Z,79.94
2022-12-31T05:30:24.683Z,78.73
2022-12-31T05:44:29.348Z,76.82
2022-12-31T05:50:58.393Z,76.58
2022-12-31T06:49:33.463Z,77.76
2022-12-31T06:52:42.437Z,77.99
2022-12-31T06:55:21.656Z,78.24
2022-12-31T06:57:51.505Z,78.25
2022-12-31T07:00:34.914Z,77.88
2022-12-31T07:34:21.691Z,77.31
2022-12-31T07:41:02.700Z,76.25
2022-12-31T07:51:38.964Z,76.56
2022-12-31T07:58:15.492Z,77.36
2022-12-31T18:58:39.888Z,70.76
2022-12-31T19:01:21.115Z,70.03
2022-12-31T19:03:47.648Z,69.91
2022-12-31T19:06:14.205Z,69.28
2022-12-31T19:08:40.787Z,69.32
2022-12-31T19:11:12.494Z,69.99
2022-12-31T19:13:39.070Z,69.75
2022-12-31T19:16:05.831Z,70.15
2022-12-31T19:18:32.321Z,70.15
2022-12-31T19:20:58.768Z,69.47
2022-12-31T19:23:26.746Z,70.01
2022-12-31T19:25:53.397Z,69.57
2022-12-31T19:28:23.618Z,69.56
2022-12-31T19:30:51.017Z,69.15
2022-12-31T19:33:18.636Z,69.19
2022-12-31T19:35:46.007Z,68.98
2022-12-31T19:38:24.712Z,68.83
2022-12-31T19:40:53.563Z,68.74
2022-12-31T19:43:23.316Z,68.60
2022-12-31T19:45:50.675Z,68.52
2022-12-31T19:48:25.961Z,68.48
2022-12-31T19:50:56.999Z,68.49
2022-12-31T19:53:26.032Z,68.90
2022-12-31T19:55:53.196Z,68.71
2022-12-31T19:58:27.301Z,68.69
2022-12-31T20:01:01.938Z,68.10
2022-12-31T20:03:29.340Z,67.83
2022-12-31T20:06:08.146Z,67.52
2022-12-31T20:08:35.716Z,67.22
2022-12-31T20:11:10.332Z,67.55
2022-12-31T20:13:37.681Z,67.70
2022-12-31T20:16:07.293Z,67.78
2022-12-31T20:18:34.072Z,67.32
2022-12-31T20:21:00.540Z,67.24
2022-12-31T20:23:27.106Z,67.65
2022-12-31T20:26:00.198Z,67.38
2022-12-31T20:28:26.866Z,67.41
2022-12-31T20:30:53.560Z,67.16
2022-12-31T20:33:21.886Z,66.82
2022-12-31T20:35:48.545Z,66.87
2022-12-31T20:38:16.240Z,66.96
2022-12-31T20:40:46.717Z,66.92
2022-12-31T20:43:14.068Z,66.90
2022-12-31T20:45:41.673Z,67.25
2022-12-31T20:48:08.322Z,67.84
2022-12-31T20:50:34.862Z,68.01
2022-12-31T20:53:02.067Z,67.88
2022-12-31T20:55:30.809Z,68.04
2022-12-31T20:57:57.433Z,67.86
2022-12-31T21:00:23.938Z,68.04
2022-12-31T21:02:59.047Z,67.59
2022-12-31T21:05:31.118Z,67.61
2022-12-31T21:07:57.713Z,67.30
2022-12-31T21:10:24.333Z,66.71
2022-12-31T21:12:53.481Z,66.84
2022-12-31T21:15:20.658Z,65.82
2022-12-31T21:17:47.400Z,65.74
2022-12-31T21:20:13.887Z,65.70
2022-12-31T21:22:40.415Z,65.74
2022-12-31T21:25:07.337Z,66.24
2022-12-31T21:27:35.508Z,66.27
2022-12-31T21:30:18.163Z,66.35
2022-12-31T21:32:46.614Z,66.87
2022-12-31T21:38:04.063Z,66.65
2022-12-31T21:40:30.724Z,66.34
2022-12-31T21:42:57.519Z,66.81
2022-12-31T21:45:24.598Z,67.32
2022-12-31T21:48:10.065Z,67.41
2022-12-31T21:50:36.639Z,67.65
2022-12-31T21:53:03.183Z,67.64
2022-12-31T21:55:48.218Z,68.08
2022-12-31T21:58:26.797Z,68.27
2022-12-31T22:01:13.593Z,68.14
2022-12-31T22:03:40.497Z,68.17
2022-12-31T22:06:14.712Z,67.72
2022-12-31T22:08:43.287Z,67.74
2022-12-31T22:11:10.875Z,67.55
2022-12-31T22:13:37.779Z,67.44
2022-12-31T22:16:06.078Z,67.49
2022-12-31T22:18:35.524Z,67.17
2022-12-31T22:21:02.534Z,67.02
2022-12-31T22:23:30.406Z,66.84
2022-12-31T22:25:56.806Z,66.83
2022-12-31T22:28:39.869Z,66.73
2022-12-31T22:31:09.552Z,66.70
2022-12-31T22:33:36.105Z,66.35
2022-12-31T22:36:06.196Z,65.70
2022-12-31T22:38:33.522Z,65.69
2022-12-31T22:41:10.182Z,65.69
2022-12-31T22:43:40.060Z,65.26
2022-12-31T22:46:12.052Z,64.72
2022-12-31T22:48:38.981Z,64.63
2022-12-31T22:51:05.891Z,64.71
2022-12-31T22:53:33.061Z,64.52
2022-12-31T22:55:59.568Z,64.62
2022-12-31T22:58:26.541Z,64.30
2022-12-31T23:00:53.929Z,64.50
2022-12-31T23:03:20.744Z,64.49
2022-12-31T23:05:51.522Z,64.59
2022-12-31T23:08:23.638Z,64.78
2022-12-31T23:11:01.567Z,64.79
2022-12-31T23:13:51.014Z,64.35
2022-12-31T23:16:37.202Z,64.91
2022-12-31T23:19:23.512Z,64.54
2022-12-31T23:22:10.234Z,64.50
2022-12-31T23:24:37.451Z,64.19
2022-12-31T23:27:04.115Z,63.89
2022-12-31T23:29:30.707Z,63.48
2022-12-31T23:31:57.282Z,63.36
2022-12-31T23:34:24.114Z,63.24
2022-12-31T23:36:50.614Z,62.87
2022-12-31T23:39:17.139Z,63.43
2022-12-31T23:41:43.650Z,63.46
2022-12-31T23:44:11.963Z,63.06
2022-12-31T23:46:39.102Z,62.86
2022-12-31T23:49:06.079Z,62.67
2022-12-31T23:51:32.874Z,62.32
2022-12-31T23:53:59.732Z,62.61
2022-12-31T23:56:26.808Z,62.47
2022-12-31T23:58:55.995Z,62.55
